sensor_id;sensor_type;location;lat;lon;timestamp;pressure;altitude;pressure_sealevel;temperature;humidity
37856;BME280;23694;43.274;26.924;2023-10-31T00:01:09;99072.78;;;15.02;56.64
37856;BME280;23694;43.274;26.924;2023-10-31T00:03:35;99072.00;;;15.11;56.43
37856;BME280;23694;43.274;26.924;2023-10-31T00:06:01;99066.00;;;14.68;57.98
37856;BME280;23694;43.274;26.924;2023-10-31T00:08:27;99076.19;;;14.72;58.12
37856;BME280;23694;43.274;26.924;2023-10-31T00:10:53;99066.34;;;14.74;58.07
37856;BME280;23694;43.274;26.924;2023-10-31T00:13:19;99066.91;;;14.78;57.80
37856;BME280;23694;43.274;26.924;2023-10-31T00:15:46;99061.00;;;14.85;56.97
37856;BME280;23694;43.274;26.924;2023-10-31T00:18:12;99058.63;;;14.82;57.00
37856;BME280;23694;43.274;26.924;2023-10-31T00:20:38;99061.56;;;14.89;56.91
37856;BME280;23694;43.274;26.924;2023-10-31T00:23:04;99065.16;;;14.99;56.27
37856;BME280;23694;43.274;26.924;2023-10-31T00:25:30;99053.88;;;14.97;56.55
37856;BME280;23694;43.274;26.924;2023-10-31T00:27:56;99048.94;;;15.04;56.04
37856;BME280;23694;43.274;26.924;2023-10-31T00:30:22;99037.66;;;15.02;56.12
37856;BME280;23694;43.274;26.924;2023-10-31T00:32:48;99039.78;;;14.66;57.25
37856;BME280;23694;43.274;26.924;2023-10-31T00:35:14;99048.41;;;14.68;57.29
37856;BME280;23694;43.274;26.924;2023-10-31T00:37:40;99044.34;;;14.64;57.56
37856;BME280;23694;43.274;26.924;2023-10-31T00:40:07;99040.22;;;14.71;57.02
37856;BME280;23694;43.274;26.924;2023-10-31T00:42:33;99026.09;;;14.72;56.73
37856;BME280;23694;43.274;26.924;2023-10-31T00:44:59;99033.22;;;14.81;56.61
37856;BME280;23694;43.274;26.924;2023-10-31T00:47:25;99030.75;;;14.89;56.41
37856;BME280;23694;43.274;26.924;2023-10-31T00:49:51;99027.56;;;14.86;56.39
37856;BME280;23694;43.274;26.924;2023-10-31T00:52:19;99018.75;;;14.76;56.15
37856;BME280;23694;43.274;26.924;2023-10-31T00:54:45;99017.06;;;14.75;56.54
37856;BME280;23694;43.274;26.924;2023-10-31T00:57:11;99025.69;;;14.77;56.36
37856;BME280;23694;43.274;26.924;2023-10-31T00:59:37;99015.41;;;14.74;56.52
37856;BME280;23694;43.274;26.924;2023-10-31T01:02:05;99018.81;;;14.85;56.20
37856;BME280;23694;43.274;26.924;2023-10-31T01:04:31;99008.91;;;14.78;56.70
37856;BME280;23694;43.274;26.924;2023-10-31T01:06:57;99014.00;;;14.70;57.07
37856;BME280;23694;43.274;26.924;2023-10-31T01:09:23;99008.34;;;14.74;56.92
37856;BME280;23694;43.274;26.924;2023-10-31T01:11:49;99004.88;;;14.74;56.70
37856;BME280;23694;43.274;26.924;2023-10-31T01:14:15;99003.44;;;14.49;57.58
37856;BME280;23694;43.274;26.924;2023-10-31T01:16:41;99003.13;;;14.63;57.36
37856;BME280;23694;43.274;26.924;2023-10-31T01:19:07;99006.22;;;14.68;57.00
37856;BME280;23694;43.274;26.924;2023-10-31T01:21:33;99002.09;;;14.54;57.55
37856;BME280;23694;43.274;26.924;2023-10-31T01:23:59;98999.41;;;14.66;57.29
37856;BME280;23694;43.274;26.924;2023-10-31T01:26:25;99000.81;;;14.49;58.12
37856;BME280;23694;43.274;26.924;2023-10-31T01:28:52;98996.56;;;14.57;57.70
37856;BME280;23694;43.274;26.924;2023-10-31T01:31:18;98998.63;;;14.54;58.00
37856;BME280;23694;43.274;26.924;2023-10-31T01:33:45;98993.34;;;14.54;58.15
37856;BME280;23694;43.274;26.924;2023-10-31T01:36:11;98990.78;;;14.43;58.89
37856;BME280;23694;43.274;26.924;2023-10-31T01:38:38;98989.84;;;14.33;59.18
37856;BME280;23694;43.274;26.924;2023-10-31T01:41:04;98978.09;;;14.37;59.49
37856;BME280;23694;43.274;26.924;2023-10-31T01:43:34;98984.28;;;14.47;59.15
37856;BME280;23694;43.274;26.924;2023-10-31T01:46:01;98985.75;;;14.40;59.67
37856;BME280;23694;43.274;26.924;2023-10-31T01:48:31;98988.53;;;14.27;60.17
37856;BME280;23694;43.274;26.924;2023-10-31T01:51:03;98978.13;;;14.25;60.63
37856;BME280;23694;43.274;26.924;2023-10-31T01:53:32;98977.50;;;14.33;60.52
37856;BME280;23694;43.274;26.924;2023-10-31T01:56:01;98973.34;;;14.31;60.80
37856;BME280;23694;43.274;26.924;2023-10-31T01:58:31;98974.88;;;14.33;60.68
37856;BME280;23694;43.274;26.924;2023-10-31T02:00:59;98974.13;;;14.42;60.18
37856;BME280;23694;43.274;26.924;2023-10-31T02:03:29;98971.41;;;14.33;60.85
37856;BME280;23694;43.274;26.924;2023-10-31T02:05:56;98972.00;;;14.25;61.05
37856;BME280;23694;43.274;26.924;2023-10-31T02:08:24;98978.00;;;14.27;61.41
37856;BME280;23694;43.274;26.924;2023-10-31T02:10:50;98977.59;;;14.11;62.07
37856;BME280;23694;43.274;26.924;2023-10-31T02:13:17;98968.72;;;14.12;62.43
37856;BME280;23694;43.274;26.924;2023-10-31T02:15:44;98966.53;;;14.17;62.69
37856;BME280;23694;43.274;26.924;2023-10-31T02:18:11;98966.66;;;14.15;62.72
37856;BME280;23694;43.274;26.924;2023-10-31T02:20:37;98967.63;;;14.14;62.61
37856;BME280;23694;43.274;26.924;2023-10-31T02:23:04;98965.59;;;14.18;62.81
37856;BME280;23694;43.274;26.924;2023-10-31T02:25:30;98968.72;;;14.12;63.00
37856;BME280;23694;43.274;26.924;2023-10-31T02:27:57;98961.84;;;14.20;62.73
37856;BME280;23694;43.274;26.924;2023-10-31T02:30:23;98958.97;;;14.23;62.55
37856;BME280;23694;43.274;26.924;2023-10-31T02:32:50;98958.72;;;14.26;62.43
37856;BME280;23694;43.274;26.924;2023-10-31T02:35:17;98955.94;;;14.28;62.40
37856;BME280;23694;43.274;26.924;2023-10-31T02:37:44;98952.75;;;14.24;62.59
37856;BME280;23694;43.274;26.924;2023-10-31T02:40:11;98953.56;;;14.25;62.35
37856;BME280;23694;43.274;26.924;2023-10-31T02:42:37;98951.50;;;14.28;62.26
37856;BME280;23694;43.274;26.924;2023-10-31T02:45:03;98941.75;;;14.19;63.00
37856;BME280;23694;43.274;26.924;2023-10-31T02:47:30;98948.63;;;14.11;64.00
37856;BME280;23694;43.274;26.924;2023-10-31T02:49:56;98946.50;;;14.05;64.15
37856;BME280;23694;43.274;26.924;2023-10-31T02:52:22;98948.78;;;13.98;64.32
37856;BME280;23694;43.274;26.924;2023-10-31T02:54:48;98947.78;;;14.10;64.16
37856;BME280;23694;43.274;26.924;2023-10-31T02:57:15;98950.41;;;14.10;64.01
37856;BME280;23694;43.274;26.924;2023-10-31T02:59:42;98952.22;;;14.10;64.34
37856;BME280;23694;43.274;26.924;2023-10-31T03:02:08;98946.09;;;14.09;64.48
37856;BME280;23694;43.274;26.924;2023-10-31T03:04:34;98939.97;;;13.88;65.45
37856;BME280;23694;43.274;26.924;2023-10-31T03:07:00;98940.63;;;14.01;65.31
37856;BME280;23694;43.274;26.924;2023-10-31T03:09:26;98944.22;;;14.00;65.35
37856;BME280;23694;43.274;26.924;2023-10-31T03:11:53;98939.81;;;14.01;65.25
37856;BME280;23694;43.274;26.924;2023-10-31T03:14:19;98931.44;;;13.95;65.41
37856;BME280;23694;43.274;26.924;2023-10-31T03:16:45;98940.38;;;14.04;65.03
37856;BME280;23694;43.274;26.924;2023-10-31T03:19:11;98940.78;;;14.00;65.79
37856;BME280;23694;43.274;26.924;2023-10-31T03:21:37;98941.03;;;13.96;65.76
37856;BME280;23694;43.274;26.924;2023-10-31T03:24:04;98942.16;;;13.83;67.21
37856;BME280;23694;43.274;26.924;2023-10-31T03:26:30;98943.03;;;13.72;67.98
37856;BME280;23694;43.274;26.924;2023-10-31T03:28:56;98940.47;;;13.82;68.59
37856;BME280;23694;43.274;26.924;2023-10-31T03:31:25;98940.22;;;13.85;68.58
37856;BME280;23694;43.274;26.924;2023-10-31T03:33:51;98933.66;;;13.79;68.95
37856;BME280;23694;43.274;26.924;2023-10-31T03:36:18;98935.56;;;13.88;68.92
37856;BME280;23694;43.274;26.924;2023-10-31T03:38:45;98932.09;;;13.88;69.13
37856;BME280;23694;43.274;26.924;2023-10-31T03:41:12;98931.69;;;13.92;68.36
37856;BME280;23694;43.274;26.924;2023-10-31T03:43:39;98935.16;;;13.93;68.76
37856;BME280;23694;43.274;26.924;2023-10-31T03:46:05;98930.75;;;13.93;68.35
37856;BME280;23694;43.274;26.924;2023-10-31T03:48:31;98929.28;;;14.01;68.12
37856;BME280;23694;43.274;26.924;2023-10-31T03:50:57;98930.63;;;13.95;68.17
37856;BME280;23694;43.274;26.924;2023-10-31T03:53:23;98929.31;;;13.89;68.94
37856;BME280;23694;43.274;26.924;2023-10-31T03:55:49;98935.16;;;13.93;69.00
37856;BME280;23694;43.274;26.924;2023-10-31T03:58:15;98932.78;;;13.90;69.54
37856;BME280;23694;43.274;26.924;2023-10-31T04:00:41;98931.03;;;13.79;69.85
37856;BME280;23694;43.274;26.924;2023-10-31T04:03:08;98932.13;;;13.77;69.95
37856;BME280;23694;43.274;26.924;2023-10-31T04:05:34;98928.19;;;13.71;70.95
37856;BME280;23694;43.274;26.924;2023-10-31T04:08:01;98931.53;;;13.62;72.07
37856;BME280;23694;43.274;26.924;2023-10-31T04:10:27;98926.91;;;13.54;73.24
37856;BME280;23694;43.274;26.924;2023-10-31T04:12:53;98926.31;;;13.51;74.14
37856;BME280;23694;43.274;26.924;2023-10-31T04:15:20;98935.63;;;13.55;73.88
37856;BME280;23694;43.274;26.924;2023-10-31T04:17:46;98922.84;;;13.50;74.65
37856;BME280;23694;43.274;26.924;2023-10-31T04:20:12;98925.00;;;13.45;74.87
37856;BME280;23694;43.274;26.924;2023-10-31T04:22:38;98926.78;;;13.56;74.36
37856;BME280;23694;43.274;26.924;2023-10-31T04:25:04;98923.06;;;13.58;73.98
37856;BME280;23694;43.274;26.924;2023-10-31T04:27:31;98921.06;;;13.51;74.54
37856;BME280;23694;43.274;26.924;2023-10-31T04:29:57;98923.06;;;13.58;74.42
37856;BME280;23694;43.274;26.924;2023-10-31T04:32:24;98928.44;;;13.57;74.40
37856;BME280;23694;43.274;26.924;2023-10-31T04:34:50;98928.19;;;13.60;74.55
37856;BME280;23694;43.274;26.924;2023-10-31T04:37:16;98927.50;;;13.69;74.28
37856;BME280;23694;43.274;26.924;2023-10-31T04:39:42;98931.53;;;13.73;73.59
37856;BME280;23694;43.274;26.924;2023-10-31T04:42:08;98929.50;;;13.77;73.47
37856;BME280;23694;43.274;26.924;2023-10-31T04:44:34;98928.66;;;13.76;73.41
37856;BME280;23694;43.274;26.924;2023-10-31T04:47:00;98939.56;;;13.60;73.78
37856;BME280;23694;43.274;26.924;2023-10-31T04:49:26;98940.16;;;13.64;73.83
37856;BME280;23694;43.274;26.924;2023-10-31T04:51:53;98940.66;;;13.69;73.29
37856;BME280;23694;43.274;26.924;2023-10-31T04:54:19;98942.44;;;13.69;73.67
37856;BME280;23694;43.274;26.924;2023-10-31T04:56:46;98943.38;;;13.79;73.37
37856;BME280;23694;43.274;26.924;2023-10-31T04:59:12;98936.66;;;14.07;72.79
37856;BME280;23694;43.274;26.924;2023-10-31T05:01:38;98943.34;;;14.64;70.96
37856;BME280;23694;43.274;26.924;2023-10-31T05:04:05;98942.94;;;15.29;67.94
37856;BME280;23694;43.274;26.924;2023-10-31T05:06:31;98939.63;;;15.96;65.03
37856;BME280;23694;43.274;26.924;2023-10-31T05:08:57;98939.03;;;16.70;61.49
37856;BME280;23694;43.274;26.924;2023-10-31T05:11:23;98938.91;;;17.36;58.26
37856;BME280;23694;43.274;26.924;2023-10-31T05:13:49;98929.41;;;18.06;55.23
37856;BME280;23694;43.274;26.924;2023-10-31T05:16:15;98936.28;;;18.78;52.51
37856;BME280;23694;43.274;26.924;2023-10-31T05:18:41;98939.31;;;19.51;49.72
37856;BME280;23694;43.274;26.924;2023-10-31T05:21:07;98942.13;;;20.33;47.37
37856;BME280;23694;43.274;26.924;2023-10-31T05:23:33;98950.16;;;21.12;44.72
37856;BME280;23694;43.274;26.924;2023-10-31T05:25:59;98957.91;;;21.46;43.51
37856;BME280;23694;43.274;26.924;2023-10-31T05:28:25;98945.72;;;22.14;41.68
37856;BME280;23694;43.274;26.924;2023-10-31T05:30:51;98959.66;;;22.85;40.22
37856;BME280;23694;43.274;26.924;2023-10-31T05:33:17;98949.78;;;23.44;39.48
37856;BME280;23694;43.274;26.924;2023-10-31T05:35:43;98960.81;;;24.07;38.10
37856;BME280;23694;43.274;26.924;2023-10-31T05:38:09;98955.53;;;24.56;36.88
37856;BME280;23694;43.274;26.924;2023-10-31T05:40:35;98965.47;;;25.18;36.01
37856;BME280;23694;43.274;26.924;2023-10-31T05:43:02;98963.25;;;25.28;35.71
37856;BME280;23694;43.274;26.924;2023-10-31T05:45:29;98963.97;;;25.98;33.86
37856;BME280;23694;43.274;26.924;2023-10-31T05:47:55;98963.88;;;26.59;33.82
37856;BME280;23694;43.274;26.924;2023-10-31T05:50:21;98966.56;;;27.11;32.56
37856;BME280;23694;43.274;26.924;2023-10-31T05:52:47;98972.91;;;27.30;32.19
37856;BME280;23694;43.274;26.924;2023-10-31T05:55:13;98966.50;;;27.44;33.11
37856;BME280;23694;43.274;26.924;2023-10-31T05:57:39;98984.66;;;28.07;31.96
37856;BME280;23694;43.274;26.924;2023-10-31T06:00:06;98972.84;;;28.96;30.83
37856;BME280;23694;43.274;26.924;2023-10-31T06:02:33;98969.38;;;29.69;29.46
37856;BME280;23694;43.274;26.924;2023-10-31T06:05:02;98963.53;;;30.32;28.46
37856;BME280;23694;43.274;26.924;2023-10-31T06:07:32;98964.69;;;31.01;27.85
37856;BME280;23694;43.274;26.924;2023-10-31T06:09:58;98964.72;;;31.64;26.86
37856;BME280;23694;43.274;26.924;2023-10-31T06:12:24;98962.00;;;31.24;26.87
37856;BME280;23694;43.274;26.924;2023-10-31T06:14:50;98956.69;;;30.71;27.60
37856;BME280;23694;43.274;26.924;2023-10-31T06:17:16;98964.91;;;29.92;29.06
37856;BME280;23694;43.274;26.924;2023-10-31T06:19:43;98966.72;;;29.80;28.99
37856;BME280;23694;43.274;26.924;2023-10-31T06:22:12;98965.66;;;30.00;28.67
37856;BME280;23694;43.274;26.924;2023-10-31T06:24:38;98959.50;;;29.92;29.18
37856;BME280;23694;43.274;26.924;2023-10-31T06:27:05;98961.28;;;30.28;28.45
37856;BME280;23694;43.274;26.924;2023-10-31T06:29:31;98955.91;;;30.40;28.31
37856;BME280;23694;43.274;26.924;2023-10-31T06:31:58;98963.84;;;31.12;27.77
37856;BME280;23694;43.274;26.924;2023-10-31T06:34:24;98959.50;;;31.46;26.63
37856;BME280;23694;43.274;26.924;2023-10-31T06:36:50;98959.03;;;29.47;29.09
37856;BME280;23694;43.274;26.924;2023-10-31T06:39:18;98956.81;;;27.17;32.82
37856;BME280;23694;43.274;26.924;2023-10-31T06:41:44;98957.78;;;25.43;35.83
37856;BME280;23694;43.274;26.924;2023-10-31T06:44:10;98948.72;;;24.11;38.65
37856;BME280;23694;43.274;26.924;2023-10-31T06:46:36;98946.38;;;23.21;40.92
37856;BME280;23694;43.274;26.924;2023-10-31T06:49:02;98937.47;;;22.61;42.46
37856;BME280;23694;43.274;26.924;2023-10-31T06:51:28;98944.34;;;21.87;44.16
37856;BME280;23694;43.274;26.924;2023-10-31T06:53:54;98946.06;;;21.49;46.05
37856;BME280;23694;43.274;26.924;2023-10-31T06:56:21;98956.84;;;21.08;47.61
37856;BME280;23694;43.274;26.924;2023-10-31T06:58:47;98951.25;;;20.71;48.68
37856;BME280;23694;43.274;26.924;2023-10-31T07:01:13;98947.94;;;20.52;49.34
37856;BME280;23694;43.274;26.924;2023-10-31T07:03:44;98945.75;;;20.07;50.83
37856;BME280;23694;43.274;26.924;2023-10-31T07:06:10;98943.69;;;19.69;52.36
37856;BME280;23694;43.274;26.924;2023-10-31T07:08:36;98948.44;;;19.15;54.75
37856;BME280;23694;43.274;26.924;2023-10-31T07:11:02;98945.13;;;19.21;55.25
37856;BME280;23694;43.274;26.924;2023-10-31T07:13:30;98959.25;;;19.21;55.16
37856;BME280;23694;43.274;26.924;2023-10-31T07:15:56;98949.59;;;19.12;55.62
37856;BME280;23694;43.274;26.924;2023-10-31T07:18:22;98948.34;;;18.98;55.64
37856;BME280;23694;43.274;26.924;2023-10-31T07:20:48;98950.03;;;18.99;56.23
37856;BME280;23694;43.274;26.924;2023-10-31T07:23:14;98949.31;;;19.23;55.24
37856;BME280;23694;43.274;26.924;2023-10-31T07:25:41;98943.03;;;19.67;54.33
37856;BME280;23694;43.274;26.924;2023-10-31T07:28:07;98938.75;;;19.98;52.53
37856;BME280;23694;43.274;26.924;2023-10-31T07:30:33;98936.56;;;19.77;52.69
37856;BME280;23694;43.274;26.924;2023-10-31T07:32:59;98937.38;;;19.61;53.13
37856;BME280;23694;43.274;26.924;2023-10-31T07:35:25;98936.25;;;19.88;52.85
37856;BME280;23694;43.274;26.924;2023-10-31T07:37:51;98934.78;;;20.10;51.85
37856;BME280;23694;43.274;26.924;2023-10-31T07:40:17;98937.09;;;20.05;51.53
37856;BME280;23694;43.274;26.924;2023-10-31T07:42:43;98936.59;;;19.93;52.53
37856;BME280;23694;43.274;26.924;2023-10-31T07:45:09;98933.94;;;19.01;54.65
37856;BME280;23694;43.274;26.924;2023-10-31T07:47:36;98934.97;;;19.08;55.61
37856;BME280;23694;43.274;26.924;2023-10-31T07:50:03;98921.41;;;19.53;53.70
37856;BME280;23694;43.274;26.924;2023-10-31T07:52:29;98925.41;;;19.66;53.41
37856;BME280;23694;43.274;26.924;2023-10-31T07:54:55;98928.78;;;19.84;52.99
37856;BME280;23694;43.274;26.924;2023-10-31T07:57:21;98920.16;;;20.06;51.71
37856;BME280;23694;43.274;26.924;2023-10-31T07:59:47;98913.31;;;19.95;52.14
37856;BME280;23694;43.274;26.924;2023-10-31T08:02:13;98916.50;;;19.49;54.01
37856;BME280;23694;43.274;26.924;2023-10-31T08:04:39;98914.97;;;19.72;53.37
37856;BME280;23694;43.274;26.924;2023-10-31T08:07:05;98912.50;;;19.37;54.42
37856;BME280;23694;43.274;26.924;2023-10-31T08:09:31;98914.94;;;19.56;53.27
37856;BME280;23694;43.274;26.924;2023-10-31T08:11:57;98907.66;;;19.74;52.92
37856;BME280;23694;43.274;26.924;2023-10-31T08:14:23;98897.84;;;19.75;51.89
37856;BME280;23694;43.274;26.924;2023-10-31T08:16:49;98909.97;;;19.61;52.34
37856;BME280;23694;43.274;26.924;2023-10-31T08:19:15;98900.41;;;19.50;52.73
37856;BME280;23694;43.274;26.924;2023-10-31T08:21:41;98899.06;;;19.46;52.88
37856;BME280;23694;43.274;26.924;2023-10-31T08:24:08;98896.91;;;19.42;53.22
37856;BME280;23694;43.274;26.924;2023-10-31T08:26:34;98900.41;;;19.50;53.33
37856;BME280;23694;43.274;26.924;2023-10-31T08:29:00;98904.81;;;19.68;52.38
37856;BME280;23694;43.274;26.924;2023-10-31T08:31:26;98900.00;;;19.63;52.51
37856;BME280;23694;43.274;26.924;2023-10-31T08:33:52;98898.34;;;19.62;52.63
37856;BME280;23694;43.274;26.924;2023-10-31T08:36:18;98897.69;;;19.76;52.06
37856;BME280;23694;43.274;26.924;2023-10-31T08:38:44;98884.41;;;19.84;52.29
37856;BME280;23694;43.274;26.924;2023-10-31T08:41:10;98885.59;;;19.98;51.61
37856;BME280;23694;43.274;26.924;2023-10-31T08:43:36;98880.22;;;19.57;53.01
37856;BME280;23694;43.274;26.924;2023-10-31T08:46:02;98880.03;;;19.51;52.94
37856;BME280;23694;43.274;26.924;2023-10-31T08:48:28;98875.69;;;19.50;53.23
37856;BME280;23694;43.274;26.924;2023-10-31T08:50:54;98866.47;;;19.70;52.19
37856;BME280;23694;43.274;26.924;2023-10-31T08:53:20;98872.28;;;20.06;51.40
37856;BME280;23694;43.274;26.924;2023-10-31T08:55:47;98861.97;;;20.36;50.55
37856;BME280;23694;43.274;26.924;2023-10-31T08:58:13;98868.28;;;20.51;49.49
37856;BME280;23694;43.274;26.924;2023-10-31T09:00:40;98856.81;;;20.50;49.43
37856;BME280;23694;43.274;26.924;2023-10-31T09:03:09;98859.84;;;19.90;51.68
37856;BME280;23694;43.274;26.924;2023-10-31T09:05:35;98852.34;;;20.02;51.69
37856;BME280;23694;43.274;26.924;2023-10-31T09:08:01;98844.72;;;19.91;51.30
37856;BME280;23694;43.274;26.924;2023-10-31T09:10:28;98839.22;;;20.41;49.67
37856;BME280;23694;43.274;26.924;2023-10-31T09:12:54;98837.91;;;19.80;51.10
37856;BME280;23694;43.274;26.924;2023-10-31T09:15:20;98836.91;;;19.65;51.82
37856;BME280;23694;43.274;26.924;2023-10-31T09:17:47;98826.94;;;20.24;50.26
37856;BME280;23694;43.274;26.924;2023-10-31T09:20:13;98825.03;;;20.57;49.01
37856;BME280;23694;43.274;26.924;2023-10-31T09:22:39;98819.00;;;20.71;48.45
37856;BME280;23694;43.274;26.924;2023-10-31T09:25:05;98822.81;;;20.77;47.88
37856;BME280;23694;43.274;26.924;2023-10-31T09:27:31;98812.91;;;21.02;46.98
37856;BME280;23694;43.274;26.924;2023-10-31T09:29:57;98810.28;;;20.94;46.09
37856;BME280;23694;43.274;26.924;2023-10-31T09:32:23;98812.41;;;20.98;46.64
37856;BME280;23694;43.274;26.924;2023-10-31T09:34:49;98796.75;;;21.03;46.78
37856;BME280;23694;43.274;26.924;2023-10-31T09:37:16;98799.31;;;21.19;46.22
37856;BME280;23694;43.274;26.924;2023-10-31T09:39:42;98789.50;;;21.20;45.67
37856;BME280;23694;43.274;26.924;2023-10-31T09:42:08;98789.63;;;20.56;47.47
37856;BME280;23694;43.274;26.924;2023-10-31T09:44:35;98780.47;;;20.98;46.75
37856;BME280;23694;43.274;26.924;2023-10-31T09:47:01;98766.53;;;21.19;45.44
37856;BME280;23694;43.274;26.924;2023-10-31T09:49:27;98771.00;;;21.27;45.36
37856;BME280;23694;43.274;26.924;2023-10-31T09:51:54;98755.03;;;21.18;45.19
37856;BME280;23694;43.274;26.924;2023-10-31T09:54:21;98749.91;;;21.17;45.38
37856;BME280;23694;43.274;26.924;2023-10-31T09:56:48;98745.41;;;21.17;45.03
37856;BME280;23694;43.274;26.924;2023-10-31T09:59:15;98754.81;;;20.66;46.10
37856;BME280;23694;43.274;26.924;2023-10-31T10:01:44;98745.72;;;20.92;46.11
37856;BME280;23694;43.274;26.924;2023-10-31T10:04:10;98722.94;;;20.89;45.83
37856;BME280;23694;43.274;26.924;2023-10-31T10:06:49;98735.78;;;20.85;46.42
37856;BME280;23694;43.274;26.924;2023-10-31T10:09:16;98723.88;;;20.65;47.11
37856;BME280;23694;43.274;26.924;2023-10-31T10:11:42;98709.56;;;21.28;45.14
37856;BME280;23694;43.274;26.924;2023-10-31T10:14:08;98708.56;;;21.52;44.73
37856;BME280;23694;43.274;26.924;2023-10-31T10:16:36;98693.50;;;21.59;44.35
37856;BME280;23694;43.274;26.924;2023-10-31T10:19:19;98697.44;;;21.63;44.28
37856;BME280;23694;43.274;26.924;2023-10-31T10:21:54;98684.59;;;21.81;43.26
37856;BME280;23694;43.274;26.924;2023-10-31T10:24:21;98686.72;;;21.71;43.75
37856;BME280;23694;43.274;26.924;2023-10-31T10:26:48;98692.25;;;21.99;42.97
37856;BME280;23694;43.274;26.924;2023-10-31T10:29:15;98684.56;;;22.04;42.58
37856;BME280;23694;43.274;26.924;2023-10-31T10:31:41;98674.38;;;22.23;41.90
37856;BME280;23694;43.274;26.924;2023-10-31T10:34:08;98668.09;;;22.30;41.41
37856;BME280;23694;43.274;26.924;2023-10-31T10:36:35;98672.09;;;22.56;41.33
37856;BME280;23694;43.274;26.924;2023-10-31T10:39:01;98656.59;;;22.66;40.47
37856;BME280;23694;43.274;26.924;2023-10-31T10:41:28;98662.31;;;22.77;40.56
37856;BME280;23694;43.274;26.924;2023-10-31T10:44:05;98649.31;;;22.89;39.82
37856;BME280;23694;43.274;26.924;2023-10-31T10:46:36;98648.78;;;23.22;39.34
37856;BME280;23694;43.274;26.924;2023-10-31T10:49:06;98644.75;;;23.54;38.42
37856;BME280;23694;43.274;26.924;2023-10-31T10:54:14;98642.50;;;23.85;37.30
37856;BME280;23694;43.274;26.924;2023-10-31T10:56:54;98621.97;;;23.92;36.16
37856;BME280;23694;43.274;26.924;2023-10-31T10:59:27;98628.50;;;24.18;36.32
37856;BME280;23694;43.274;26.924;2023-10-31T11:01:58;98622.19;;;24.32;35.16
37856;BME280;23694;43.274;26.924;2023-10-31T11:04:26;98608.00;;;24.38;35.07
37856;BME280;23694;43.274;26.924;2023-10-31T11:06:52;98608.28;;;24.09;35.91
37856;BME280;23694;43.274;26.924;2023-10-31T11:09:19;98597.34;;;24.51;35.25
37856;BME280;23694;43.274;26.924;2023-10-31T11:11:46;98597.09;;;24.33;35.41
37856;BME280;23694;43.274;26.924;2023-10-31T11:14:16;98592.13;;;24.30;35.23
37856;BME280;23694;43.274;26.924;2023-10-31T11:16:49;98588.84;;;24.34;35.36
37856;BME280;23694;43.274;26.924;2023-10-31T11:19:17;98594.72;;;24.17;35.70
37856;BME280;23694;43.274;26.924;2023-10-31T11:22:00;98583.44;;;23.80;36.53
37856;BME280;23694;43.274;26.924;2023-10-31T11:24:28;98574.34;;;24.16;35.85
37856;BME280;23694;43.274;26.924;2023-10-31T11:26:59;98584.84;;;24.17;35.68
37856;BME280;23694;43.274;26.924;2023-10-31T11:29:25;98566.91;;;24.11;35.66
37856;BME280;23694;43.274;26.924;2023-10-31T11:31:54;98562.22;;;24.20;35.79
37856;BME280;23694;43.274;26.924;2023-10-31T11:34:20;98565.09;;;24.18;35.82
37856;BME280;23694;43.274;26.924;2023-10-31T11:36:46;98558.91;;;24.11;36.03
37856;BME280;23694;43.274;26.924;2023-10-31T11:39:15;98550.25;;;24.09;35.67
37856;BME280;23694;43.274;26.924;2023-10-31T11:41:48;98557.59;;;24.00;35.96
37856;BME280;23694;43.274;26.924;2023-10-31T11:44:15;98550.25;;;24.09;35.91
37856;BME280;23694;43.274;26.924;2023-10-31T11:46:42;98548.31;;;23.96;36.46
37856;BME280;23694;43.274;26.924;2023-10-31T11:49:08;98541.59;;;24.07;35.94
37856;BME280;23694;43.274;26.924;2023-10-31T11:51:34;98536.16;;;23.94;36.00
37856;BME280;23694;43.274;26.924;2023-10-31T11:54:02;98546.50;;;24.03;35.78
37856;BME280;23694;43.274;26.924;2023-10-31T11:56:28;98527.31;;;23.93;36.44
37856;BME280;23694;43.274;26.924;2023-10-31T11:59:04;98543.56;;;23.92;36.18
37856;BME280;23694;43.274;26.924;2023-10-31T12:01:32;98534.53;;;23.99;36.08
37856;BME280;23694;43.274;26.924;2023-10-31T12:03:59;98548.69;;;23.87;36.47
37856;BME280;23694;43.274;26.924;2023-10-31T12:06:26;98523.59;;;23.88;36.40
37856;BME280;23694;43.274;26.924;2023-10-31T12:08:52;98518.25;;;23.88;36.42
37856;BME280;23694;43.274;26.924;2023-10-31T12:11:20;98524.34;;;23.68;36.84
37856;BME280;23694;43.274;26.924;2023-10-31T12:13:55;98521.16;;;23.93;36.59
37856;BME280;23694;43.274;26.924;2023-10-31T12:16:29;98529.88;;;23.67;36.93
37856;BME280;23694;43.274;26.924;2023-10-31T12:18:59;98525.28;;;23.54;37.49
37856;BME280;23694;43.274;26.924;2023-10-31T12:21:49;98514.72;;;23.81;37.04
37856;BME280;23694;43.274;26.924;2023-10-31T12:24:18;98516.16;;;23.77;37.21
37856;BME280;23694;43.274;26.924;2023-10-31T12:26:45;98510.53;;;23.65;37.30
37856;BME280;23694;43.274;26.924;2023-10-31T12:29:14;98508.56;;;23.80;37.13
37856;BME280;23694;43.274;26.924;2023-10-31T12:31:48;98502.00;;;23.89;36.84
37856;BME280;23694;43.274;26.924;2023-10-31T12:34:15;98500.34;;;23.88;37.26
37856;BME280;23694;43.274;26.924;2023-10-31T12:36:42;98504.84;;;23.81;37.38
37856;BME280;23694;43.274;26.924;2023-10-31T12:39:11;98495.53;;;23.64;37.87
37856;BME280;23694;43.274;26.924;2023-10-31T12:41:41;98493.44;;;23.59;37.61
37856;BME280;23694;43.274;26.924;2023-10-31T12:44:08;98487.84;;;23.54;37.93
37856;BME280;23694;43.274;26.924;2023-10-31T12:46:39;98471.63;;;23.56;37.74
37856;BME280;23694;43.274;26.924;2023-10-31T12:49:13;98481.72;;;23.60;37.73
37856;BME280;23694;43.274;26.924;2023-10-31T12:51:55;98475.75;;;23.58;37.76